Time;durP1;ratioP1;P1;durP2;ratioP2;P2;SDS_P1;SDS_P2;PMS_P1;PMS_P2;Temp;Humidity;BMP_temperature;BMP_pressure;BME280_temperature;BME280_humidity;BME280_pressure;Samples;Min_cycle;Max_cycle;Signal;HPM_P1;HPM_P2
2021/05/15 00:01:09;;;;;;;5.78;1.67;;;;;;;9.40;77.90;95635.16;4880667;29;20147;-64
2021/05/15 00:03:37;;;;;;;5.60;1.52;;;;;;;9.29;78.17;95638.69;4879676;29;20442;-63
2021/05/15 00:06:03;;;;;;;5.20;1.60;;;;;;;9.45;78.00;95643.13;4879295;29;20048;-64
2021/05/15 00:08:29;;;;;;;3.88;1.38;;;;;;;9.28;78.11;95642.34;4879364;29;20096;-64
2021/05/15 00:10:57;;;;;;;5.18;1.50;;;;;;;9.25;78.77;95637.56;4879348;29;20119;-63
2021/05/15 00:13:24;;;;;;;5.03;1.60;;;;;;;9.23;78.62;95642.28;4878846;29;20053;-63
2021/05/15 00:15:50;;;;;;;5.75;1.60;;;;;;;9.27;78.69;95636.31;4879067;29;20040;-63
2021/05/15 00:18:15;;;;;;;5.40;1.50;;;;;;;9.21;78.37;95642.53;4879483;29;20112;-63
2021/05/15 00:20:44;;;;;;;5.35;1.55;;;;;;;9.22;78.71;95633.63;4879086;29;20049;-64
2021/05/15 00:23:09;;;;;;;4.32;1.50;;;;;;;9.24;77.98;95636.00;4879131;29;20103;-63
2021/05/15 00:25:35;;;;;;;5.07;1.50;;;;;;;9.18;78.67;95640.38;4893498;29;20174;-63
2021/05/15 00:28:01;;;;;;;4.63;1.40;;;;;;;9.26;78.43;95633.94;4879448;29;20052;-63
2021/05/15 00:30:27;;;;;;;4.18;1.40;;;;;;;9.25;78.51;95625.25;4879323;29;20128;-63
2021/05/15 00:32:53;;;;;;;4.22;1.40;;;;;;;9.13;78.21;95638.47;4879022;29;20132;-64
2021/05/15 00:35:18;;;;;;;4.32;1.33;;;;;;;9.15;78.32;95638.25;4879366;29;20079;-64
2021/05/15 00:37:46;;;;;;;5.28;1.52;;;;;;;9.19;78.16;95631.47;4878618;29;20416;-63
2021/05/15 00:40:13;;;;;;;4.07;1.30;;;;;;;9.16;78.01;95638.00;4878862;29;20132;-63
2021/05/15 00:42:39;;;;;;;4.25;1.40;;;;;;;9.14;78.16;95637.44;4879676;29;20045;-63
2021/05/15 00:45:09;;;;;;;4.82;1.38;;;;;;;9.12;77.96;95634.25;4878956;29;20041;-63
2021/05/15 00:47:35;;;;;;;3.72;1.27;;;;;;;9.13;78.17;95633.22;4879152;29;20044;-63
2021/05/15 00:50:00;;;;;;;5.28;1.33;;;;;;;9.23;77.76;95637.03;4878826;29;20501;-63
2021/05/15 00:52:33;;;;;;;6.05;1.30;;;;;;;9.08;77.92;95622.66;4878709;29;20053;-63
2021/05/15 00:54:59;;;;;;;4.88;1.20;;;;;;;9.10;78.37;95635.56;4878342;29;20049;-63
2021/05/15 00:57:26;;;;;;;4.85;1.40;;;;;;;9.09;78.37;95629.47;4877827;29;20246;-64
2021/05/15 00:59:54;;;;;;;4.38;1.30;;;;;;;9.10;78.50;95633.72;4878526;29;20049;-63
2021/05/15 01:02:20;;;;;;;;;;;;;;;9.05;78.33;95630.22;4879257;29;20045;-63
2021/05/15 01:04:46;;;;;;;4.68;1.40;;;;;;;8.97;78.44;95626.16;4878055;29;19928;-63
2021/05/15 01:07:14;;;;;;;4.38;1.50;;;;;;;8.96;78.60;95634.28;4878263;29;20048;-63
2021/05/15 01:09:39;;;;;;;;;;;;;;;8.93;79.19;95627.66;4878555;29;20041;-64
2021/05/15 01:12:06;;;;;;;4.97;1.48;;;;;;;8.98;78.52;95627.75;4878375;29;19967;-64
2021/05/15 01:14:33;;;;;;;4.60;1.40;;;;;;;9.07;78.45;95636.81;4877837;29;20049;-63
2021/05/15 01:16:59;;;;;;;4.55;1.50;;;;;;;8.83;79.19;95635.41;4878024;29;20045;-64
2021/05/15 01:19:25;;;;;;;5.82;1.48;;;;;;;8.84;78.89;95632.53;4878072;29;20053;-64
2021/05/15 01:21:52;;;;;;;5.13;1.52;;;;;;;8.84;79.35;95637.78;4878192;29;20056;-63
2021/05/15 01:24:18;;;;;;;5.60;1.50;;;;;;;8.80;79.40;95635.84;4878245;29;20125;-63
2021/05/15 01:26:43;;;;;;;4.03;1.42;;;;;;;8.91;79.16;95632.38;4878027;29;20120;-63
2021/05/15 01:29:09;;;;;;;3.95;1.30;;;;;;;8.80;79.28;95633.25;4878425;29;20554;-63
2021/05/15 01:31:36;;;;;;;5.30;1.30;;;;;;;8.71;79.58;95634.66;4878165;29;20045;-63
2021/05/15 01:34:05;;;;;;;4.72;1.50;;;;;;;8.91;78.97;95619.25;4878155;29;20051;-64
2021/05/15 01:36:42;;;;;;;5.07;1.50;;;;;;;8.83;79.27;95624.91;4878459;29;20045;-63
2021/05/15 01:39:12;;;;;;;4.00;1.35;;;;;;;8.62;80.06;95627.19;4878415;29;20045;-64
2021/05/15 01:41:38;;;;;;;5.88;1.50;;;;;;;8.73;79.64;95627.38;4878009;29;20048;-64
2021/05/15 01:44:04;;;;;;;5.85;1.55;;;;;;;8.78;79.04;95623.00;4877987;29;20056;-64
2021/05/15 01:46:30;;;;;;;5.07;1.48;;;;;;;8.68;79.06;95622.84;4877709;29;20072;-64
2021/05/15 01:48:56;;;;;;;4.82;1.42;;;;;;;8.62;79.76;95613.28;4892727;29;20505;-64
2021/05/15 01:51:21;;;;;;;5.20;1.50;;;;;;;8.55;80.25;95602.94;4879532;29;20517;-63
2021/05/15 01:53:49;;;;;;;5.85;1.90;;;;;;;8.70;79.68;95601.59;4878510;29;20405;-63
2021/05/15 01:56:18;;;;;;;4.38;1.35;;;;;;;8.64;79.68;95606.78;4881618;29;20049;-64
2021/05/15 01:58:44;;;;;;;3.58;1.27;;;;;;;8.69;79.73;95613.94;4881773;29;20469;-64
2021/05/15 02:01:10;;;;;;;4.57;1.40;;;;;;;8.53;80.21;95609.47;4881599;29;20505;-64
2021/05/15 02:03:37;;;;;;;4.68;1.58;;;;;;;8.46;81.01;95609.63;4881735;29;20093;-63
2021/05/15 02:06:03;;;;;;;4.80;1.67;;;;;;;8.40;81.21;95606.13;4881543;29;20053;-64
2021/05/15 02:08:32;;;;;;;5.35;1.60;;;;;;;8.45;80.95;95612.47;4881779;29;20045;-64
2021/05/15 02:10:58;;;;;;;4.22;1.40;;;;;;;8.40;81.00;95600.09;4882109;29;20084;-64
2021/05/15 02:13:27;;;;;;;5.47;1.70;;;;;;;8.38;80.81;95602.13;4881662;29;20089;-64
2021/05/15 02:15:54;;;;;;;5.43;1.60;;;;;;;8.36;81.04;95605.00;4881622;29;20037;-64
2021/05/15 02:18:20;;;;;;;3.70;1.33;;;;;;;8.35;81.44;95611.25;4881321;29;20045;-63
2021/05/15 02:20:48;;;;;;;4.70;1.45;;;;;;;8.19;81.62;95608.59;4881286;29;20051;-64
2021/05/15 02:23:14;;;;;;;5.38;1.70;;;;;;;8.26;81.85;95614.47;4880089;29;20081;-62
2021/05/15 02:25:40;;;;;;;8.02;1.80;;;;;;;8.34;81.74;95616.69;4894908;29;20136;-63
2021/05/15 02:28:06;;;;;;;5.75;1.80;;;;;;;8.20;81.76;95610.19;4899230;23;20501;-63
2021/05/15 02:30:33;;;;;;;5.38;1.80;;;;;;;8.12;82.11;95598.25;4895398;29;20045;-63
2021/05/15 02:32:59;;;;;;;4.68;1.58;;;;;;;8.10;82.45;95598.47;4881255;29;20327;-63
2021/05/15 02:35:25;;;;;;;5.95;1.95;;;;;;;7.93;82.96;95608.13;4881100;29;20046;-62
2021/05/15 02:37:51;;;;;;;6.18;1.98;;;;;;;7.93;83.08;95605.50;4881037;29;20060;-62
2021/05/15 02:40:17;;;;;;;5.65;2.17;;;;;;;7.78;83.19;95597.34;4881100;29;20097;-63
2021/05/15 02:42:43;;;;;;;6.75;2.00;;;;;;;7.74;84.06;95596.22;4880787;29;20053;-63
2021/05/15 02:45:13;;;;;;;5.15;1.80;;;;;;;7.73;83.96;95592.03;4880878;29;20113;-63
2021/05/15 02:47:42;;;;;;;5.35;1.80;;;;;;;7.71;83.63;95594.09;4880916;29;20064;-64
2021/05/15 02:50:12;;;;;;;6.18;1.80;;;;;;;7.70;83.51;95600.34;4880813;29;20413;-63
2021/05/15 02:52:41;;;;;;;5.70;1.85;;;;;;;7.64;83.90;95591.56;4880973;29;20049;-64
2021/05/15 02:55:09;;;;;;;5.05;2.00;;;;;;;7.54;84.30;95592.19;4880818;29;20577;-63
2021/05/15 02:57:35;;;;;;;5.10;1.77;;;;;;;7.56;84.23;95589.34;4881293;29;20041;-63
2021/05/15 03:00:00;;;;;;;5.97;2.28;;;;;;;7.48;84.90;95600.16;4884747;29;20080;-62
2021/05/15 03:02:26;;;;;;;5.07;1.70;;;;;;;7.38;85.13;95598.16;4884993;29;20056;-64
2021/05/15 03:04:55;;;;;;;5.53;1.70;;;;;;;7.27;85.26;95593.72;4885515;29;20049;-62
2021/05/15 03:07:20;;;;;;;6.55;2.03;;;;;;;7.31;85.23;95592.22;4885205;29;20635;-62
2021/05/15 03:09:46;;;;;;;5.32;1.73;;;;;;;7.20;85.55;95595.66;4887231;29;20053;-65
2021/05/15 03:12:15;;;;;;;5.40;1.80;;;;;;;7.12;86.18;95593.41;4886677;29;20093;-62
2021/05/15 03:14:40;;;;;;;5.93;2.08;;;;;;;7.11;85.53;95592.59;4885444;29;20045;-62
2021/05/15 03:17:07;;;;;;;7.60;2.10;;;;;;;7.09;86.13;95595.41;4889942;29;20065;-62
2021/05/15 03:19:33;;;;;;;6.03;2.00;;;;;;;7.13;85.95;95594.97;4899584;29;20068;-61
2021/05/15 03:21:59;;;;;;;6.80;2.40;;;;;;;7.04;86.17;95590.09;4884327;29;20501;-62
2021/05/15 03:24:25;;;;;;;5.25;1.83;;;;;;;7.06;85.61;95585.44;4885942;29;20052;-63
2021/05/15 03:26:50;;;;;;;6.85;2.30;;;;;;;6.91;86.15;95582.47;4883008;29;20401;-62
2021/05/15 03:29:19;;;;;;;6.22;2.25;;;;;;;7.04;85.33;95579.63;4887033;29;20068;-62
2021/05/15 03:31:45;;;;;;;6.32;2.22;;;;;;;6.95;86.20;95593.28;4886846;29;20485;-61
2021/05/15 03:34:10;;;;;;;6.55;2.20;;;;;;;6.96;86.16;95592.25;4888174;29;20053;-62
2021/05/15 03:36:36;;;;;;;6.65;2.20;;;;;;;6.87;86.20;95588.38;4890072;29;20045;-63
2021/05/15 03:39:03;;;;;;;6.60;2.33;;;;;;;6.88;85.94;95588.16;4889670;29;20421;-62
2021/05/15 03:41:28;;;;;;;8.32;2.38;;;;;;;6.84;86.42;95587.84;4890056;29;20112;-62
2021/05/15 03:43:54;;;;;;;6.88;2.47;;;;;;;6.91;85.96;95592.94;4902574;29;20045;-62
2021/05/15 03:46:22;;;;;;;6.00;2.25;;;;;;;6.80;86.88;95596.34;4887439;29;20045;-62
2021/05/15 03:48:47;;;;;;;5.43;2.05;;;;;;;6.84;86.47;95592.25;4883045;29;20052;-62
2021/05/15 03:51:16;;;;;;;17.98;3.28;;;;;;;6.88;86.46;95582.91;4880985;29;20049;-63
2021/05/15 03:53:43;;;;;;;;;;;;;;;6.98;86.39;95588.38;4882211;29;20501;-63
2021/05/15 03:56:12;;;;;;;7.07;2.08;;;;;;;7.02;85.48;95588.72;4880680;29;19920;-62
2021/05/15 03:58:38;;;;;;;6.50;2.20;;;;;;;6.98;85.52;95579.75;4880532;29;20045;-63
2021/05/15 04:01:03;;;;;;;6.85;2.45;;;;;;;6.98;84.99;95582.34;4880420;29;20124;-63
2021/05/15 04:03:32;;;;;;;6.75;2.55;;;;;;;6.83;85.38;95580.19;4880597;29;20417;-61
2021/05/15 04:05:58;;;;;;;6.88;2.40;;;;;;;6.82;85.82;95586.44;4880673;29;20079;-62
2021/05/15 04:08:26;;;;;;;7.38;2.70;;;;;;;6.77;86.02;95586.34;4882079;29;20139;-62
2021/05/15 04:10:54;;;;;;;5.78;2.25;;;;;;;6.81;86.14;95583.03;4885352;29;20069;-62
2021/05/15 04:18:21;;;;;;;7.32;2.50;;;;;;;6.76;86.31;95579.53;4880121;29;20065;-63
2021/05/15 04:20:46;;;;;;;5.88;1.95;;;;;;;6.79;85.54;95573.84;4880712;29;20053;-63
2021/05/15 04:23:13;;;;;;;6.53;1.92;;;;;;;6.85;84.92;95580.78;4881253;29;20040;-63
2021/05/15 04:25:39;;;;;;;7.55;2.40;;;;;;;6.88;85.44;95582.91;4884127;29;20081;-63
2021/05/15 04:28:06;;;;;;;8.00;2.40;;;;;;;6.84;85.69;95574.75;4883847;29;20075;-62
2021/05/15 04:30:33;;;;;;;7.40;2.38;;;;;;;6.83;85.37;95580.19;4886974;29;20053;-62
2021/05/15 04:33:00;;;;;;;6.97;2.30;;;;;;;6.97;85.01;95581.56;4888742;29;20049;-63
2021/05/15 04:35:27;;;;;;;6.10;2.35;;;;;;;7.01;83.98;95577.47;4889869;29;20045;-62
2021/05/15 04:37:53;;;;;;;7.13;2.17;;;;;;;7.15;83.65;95587.69;4882978;29;20049;-62
2021/05/15 04:40:19;;;;;;;5.82;2.10;;;;;;;7.02;83.60;95599.97;4882398;29;20045;-62
2021/05/15 04:42:44;;;;;;;7.97;2.15;;;;;;;6.96;84.01;95590.44;4882161;29;20418;-62
2021/05/15 04:45:12;;;;;;;6.07;2.17;;;;;;;6.92;84.13;95596.34;4883214;29;20052;-62
2021/05/15 04:47:39;;;;;;;7.13;2.25;;;;;;;6.97;84.64;95596.47;4880981;29;20100;-63
2021/05/15 04:50:06;;;;;;;6.38;2.47;;;;;;;7.03;84.37;95598.94;4894238;29;20421;-63
2021/05/15 04:52:32;;;;;;;6.35;2.15;;;;;;;6.95;83.88;95601.13;4879564;29;20044;-63
2021/05/15 04:54:58;;;;;;;6.05;2.10;;;;;;;7.01;84.29;95598.41;4879521;29;20497;-62
2021/05/15 04:57:24;;;;;;;5.65;1.92;;;;;;;7.13;83.67;95595.78;4879308;29;20045;-62
2021/05/15 04:59:49;;;;;;;10.13;2.40;;;;;;;7.32;82.75;95593.84;4880890;29;20045;-62
2021/05/15 05:02:15;;;;;;;5.60;1.98;;;;;;;7.18;82.96;95592.47;4899009;29;20056;-62
2021/05/15 05:04:41;;;;;;;6.70;2.30;;;;;;;7.10;83.34;95589.19;4883252;29;20105;-62
2021/05/15 05:07:07;;;;;;;7.13;1.98;;;;;;;7.33;82.30;95579.72;4881033;29;20041;-62
2021/05/15 05:09:32;;;;;;;5.13;1.77;;;;;;;7.54;81.67;95579.09;4879140;29;20056;-63
2021/05/15 05:11:59;;;;;;;6.13;2.00;;;;;;;7.88;80.48;95573.97;4893327;29;20052;-62
2021/05/15 05:14:25;;;;;;;6.90;2.00;;;;;;;8.05;79.24;95580.06;4878703;29;20048;-63
2021/05/15 05:16:55;;;;;;;5.75;1.85;;;;;;;8.78;77.24;95573.16;4879331;29;20052;-62
2021/05/15 05:19:20;;;;;;;4.88;1.65;;;;;;;9.31;74.61;95584.13;4878698;29;20420;-63
2021/05/15 05:21:49;;;;;;;6.05;1.52;;;;;;;8.99;74.53;95571.66;4879102;29;20535;-62
2021/05/15 05:24:15;;;;;;;5.57;1.60;;;;;;;8.97;75.04;95568.44;4878749;29;20189;-63
2021/05/15 05:26:41;;;;;;;5.70;1.67;;;;;;;9.12;74.10;95573.13;4879248;29;20065;-62
2021/05/15 05:29:08;;;;;;;4.65;1.42;;;;;;;9.52;73.16;95579.94;4878890;29;20454;-62
2021/05/15 05:31:34;;;;;;;5.00;1.52;;;;;;;9.91;71.56;95578.03;4879049;29;20045;-63
2021/05/15 05:34:00;;;;;;;6.10;1.70;;;;;;;10.34;70.00;95576.38;4878746;29;20055;-63
2021/05/15 05:36:25;;;;;;;4.18;1.58;;;;;;;10.08;69.92;95577.94;4878895;29;20825;-62
2021/05/15 05:38:52;;;;;;;4.85;1.60;;;;;;;10.12;69.71;95579.03;4879161;29;20069;-62
2021/05/15 05:41:20;;;;;;;5.18;1.70;;;;;;;10.54;69.28;95579.16;4893023;29;20053;-63
2021/05/15 05:43:45;;;;;;;6.93;1.77;;;;;;;10.40;67.91;95578.03;4878630;29;20532;-63
2021/05/15 05:46:11;;;;;;;4.47;1.50;;;;;;;10.60;67.56;95580.81;4878323;29;20053;-63
2021/05/15 05:48:37;;;;;;;5.50;1.60;;;;;;;10.89;66.93;95577.88;4878322;29;20041;-62
2021/05/15 05:51:03;;;;;;;3.65;1.30;;;;;;;10.72;67.32;95578.81;4878603;29;20081;-62
2021/05/15 05:53:28;;;;;;;6.40;1.60;;;;;;;10.86;67.10;95578.38;4878215;29;20513;-63
2021/05/15 05:55:55;;;;;;;4.95;1.50;;;;;;;10.99;67.24;95577.94;4878444;29;20057;-63
2021/05/15 05:58:20;;;;;;;5.80;1.67;;;;;;;11.30;64.76;95574.47;4878750;29;20045;-63
2021/05/15 06:00:46;;;;;;;4.90;1.52;;;;;;;11.35;64.61;95578.94;4879115;29;20051;-63
2021/05/15 06:03:11;;;;;;;4.90;1.50;;;;;;;11.68;64.26;95564.63;4878113;29;20037;-63
2021/05/15 06:05:37;;;;;;;5.70;1.50;;;;;;;11.59;63.26;95566.16;4878338;29;20041;-63
2021/05/15 06:08:09;;;;;;;6.95;1.75;;;;;;;11.48;64.15;95567.16;4892466;29;20109;-63
2021/05/15 06:10:37;;;;;;;4.45;1.52;;;;;;;12.06;63.29;95562.66;4878039;29;20053;-63
2021/05/15 06:13:04;;;;;;;4.50;1.45;;;;;;;11.92;62.92;95553.66;4878206;29;20177;-62
2021/05/15 06:15:30;;;;;;;6.40;1.70;;;;;;;11.70;63.11;95559.88;4878179;29;20417;-62
2021/05/15 06:17:59;;;;;;;5.30;1.42;;;;;;;12.03;63.22;95563.16;4878218;29;20037;-62
2021/05/15 06:20:24;;;;;;;;;;;;;;;12.75;60.66;95562.19;4879199;29;20053;-64
2021/05/15 06:22:50;;;;;;;5.10;1.50;;;;;;;12.41;60.83;95555.84;4878320;29;19924;-65
2021/05/15 06:25:16;;;;;;;7.05;1.50;;;;;;;13.23;59.35;95554.72;4877910;29;20045;-62
2021/05/15 06:27:42;;;;;;;4.63;1.23;;;;;;;12.88;59.13;95560.84;4877786;29;20135;-63
2021/05/15 06:30:09;;;;;;;6.05;1.52;;;;;;;13.07;58.27;95553.16;4878174;29;20540;-63
2021/05/15 06:32:35;;;;;;;3.88;1.30;;;;;;;12.98;59.04;95555.56;4878382;29;20136;-62
2021/05/15 06:35:01;;;;;;;4.75;1.40;;;;;;;13.37;58.52;95557.63;4878383;29;20128;-62
2021/05/15 06:37:26;;;;;;;4.65;1.30;;;;;;;13.52;57.40;95567.34;4892576;29;20073;-63
2021/05/15 06:39:52;;;;;;;3.72;1.42;;;;;;;13.37;57.60;95552.34;4878867;29;20084;-63
2021/05/15 06:42:20;;;;;;;5.38;1.40;;;;;;;13.33;57.38;95560.00;4881586;29;20068;-63
2021/05/15 06:44:48;;;;;;;5.03;1.63;;;;;;;13.38;58.25;95565.25;4881275;29;20402;-63
2021/05/15 06:47:14;;;;;;;5.07;1.48;;;;;;;13.19;57.17;95561.59;4881209;29;20041;-63
2021/05/15 06:49:40;;;;;;;5.20;1.40;;;;;;;13.16;58.46;95562.13;4881267;29;20045;-61
2021/05/15 06:52:08;;;;;;;3.63;1.20;;;;;;;13.96;56.87;95562.13;4895886;29;20056;-64
2021/05/15 06:54:36;;;;;;;6.13;1.50;;;;;;;13.52;56.70;95562.06;4880853;29;20093;-63
2021/05/15 06:57:02;;;;;;;4.25;1.25;;;;;;;13.95;55.61;95559.78;4881227;29;20052;-63
2021/05/15 06:59:28;;;;;;;5.60;1.33;;;;;;;14.23;54.17;95553.78;4881341;29;20053;-61
2021/05/15 07:01:53;;;;;;;5.30;1.40;;;;;;;13.80;55.67;95564.06;4881181;29;20045;-62
2021/05/15 07:04:20;;;;;;;4.00;1.42;;;;;;;14.18;54.59;95556.47;4881031;29;20048;-62
2021/05/15 07:06:47;;;;;;;4.40;1.30;;;;;;;14.41;53.22;95555.75;4895506;29;20405;-62
2021/05/15 07:09:15;;;;;;;5.13;1.40;;;;;;;14.55;52.44;95552.53;4895557;29;20045;-62
2021/05/15 07:11:41;;;;;;;;;;;;;;;14.78;52.36;95549.16;4881798;29;20081;-62
2021/05/15 07:14:07;;;;;;;3.95;1.20;;;;;;;14.58;52.71;95549.31;4881480;29;19920;-62
2021/05/15 07:16:32;;;;;;;3.78;1.23;;;;;;;14.72;51.88;95550.28;4881080;29;20560;-62
2021/05/15 07:18:58;;;;;;;3.47;1.27;;;;;;;14.98;51.16;95547.41;4880720;29;20049;-62
2021/05/15 07:21:24;;;;;;;4.45;1.20;;;;;;;15.30;49.67;95534.38;4895104;29;20049;-62
2021/05/15 07:23:50;;;;;;;5.47;1.60;;;;;;;15.03;50.65;95542.06;4880203;29;20037;-63
2021/05/15 07:26:16;;;;;;;5.43;1.40;;;;;;;13.81;52.76;95531.28;4880210;29;20037;-63
2021/05/15 07:28:41;;;;;;;4.82;1.20;;;;;;;13.65;53.75;95521.84;4880726;29;20543;-62
2021/05/15 07:31:07;;;;;;;4.55;1.15;;;;;;;13.53;53.31;95530.09;4880605;29;20048;-63
2021/05/15 07:33:33;;;;;;;4.15;1.20;;;;;;;14.30;52.47;95525.16;4880496;29;20524;-63
2021/05/15 07:35:59;;;;;;;4.93;1.30;;;;;;;14.93;50.56;95524.41;4880994;29;20053;-61
2021/05/15 07:38:26;;;;;;;3.47;1.20;;;;;;;15.28;48.54;95525.91;4880371;29;20136;-62
2021/05/15 07:40:52;;;;;;;4.60;1.30;;;;;;;15.00;50.05;95522.22;4880357;29;20041;-62
2021/05/15 07:43:23;;;;;;;4.65;1.42;;;;;;;15.57;49.32;95517.09;4879864;29;20295;-62
2021/05/15 07:45:49;;;;;;;5.70;1.70;;;;;;;14.50;50.64;95513.66;4880161;29;20517;-62
2021/05/15 07:48:14;;;;;;;4.78;1.35;;;;;;;14.35;52.06;95513.75;4880063;29;20064;-63
2021/05/15 07:50:40;;;;;;;6.13;1.58;;;;;;;14.57;51.79;95521.28;4894093;29;20041;-62
2021/05/15 07:53:08;;;;;;;3.88;1.30;;;;;;;14.17;51.21;95512.56;4882358;29;20049;-62
2021/05/15 07:55:35;;;;;;;4.45;1.20;;;;;;;14.89;48.98;95510.94;4885105;29;20101;-62
2021/05/15 07:58:00;;;;;;;4.55;1.30;;;;;;;15.90;47.13;95510.88;4880131;29;20056;-61
2021/05/15 08:00:28;;;;;;;2.50;1.00;;;;;;;17.07;43.56;95512.78;4879594;29;20037;-62
2021/05/15 08:02:54;;;;;;;4.38;1.10;;;;;;;17.43;42.36;95519.00;4879391;29;20048;-63
2021/05/15 08:05:20;;;;;;;5.75;1.20;;;;;;;16.78;43.78;95521.78;4879493;29;20114;-63
2021/05/15 08:07:46;;;;;;;5.40;1.42;;;;;;;17.12;42.62;95513.50;4879581;29;20040;-63
2021/05/15 08:10:12;;;;;;;5.28;1.10;;;;;;;17.81;40.76;95505.50;4879397;29;20048;-63
2021/05/15 08:12:38;;;;;;;3.15;1.10;;;;;;;18.41;40.05;95504.47;4879391;29;20041;-63
2021/05/15 08:15:06;;;;;;;3.05;1.17;;;;;;;18.04;41.64;95511.69;4893503;29;20545;-63
2021/05/15 08:17:36;;;;;;;3.03;1.10;;;;;;;17.41;41.71;95505.22;4879108;29;20124;-62
2021/05/15 08:20:02;;;;;;;3.47;1.13;;;;;;;15.58;45.10;95511.50;4879081;29;20417;-62
2021/05/15 08:22:28;;;;;;;4.13;1.10;;;;;;;17.03;41.88;95496.63;4879135;29;20045;-61
2021/05/15 08:24:53;;;;;;;4.25;1.20;;;;;;;17.77;41.16;95496.56;4878737;29;20045;-63
2021/05/15 08:27:20;;;;;;;3.42;1.08;;;;;;;18.64;39.52;95498.03;4918470;23;20060;-68
2021/05/15 08:29:49;;;;;;;3.88;1.20;;;;;;;18.09;40.75;95498.25;4899889;29;20044;-68
2021/05/15 08:32:14;;;;;;;3.03;1.10;;;;;;;17.39;41.88;95494.09;4900256;29;20048;-67
2021/05/15 08:34:40;;;;;;;4.22;1.20;;;;;;;17.57;41.35;95482.56;4899380;29;20416;-66
2021/05/15 08:37:06;;;;;;;2.50;1.05;;;;;;;16.11;43.80;95484.06;4896123;29;20120;-66
2021/05/15 08:39:32;;;;;;;2.83;0.98;;;;;;;15.71;42.45;95486.19;4884033;29;20056;-66
2021/05/15 08:41:57;;;;;;;1.83;0.85;;;;;;;15.29;44.24;95501.00;4885006;29;20052;-69
2021/05/15 08:44:26;;;;;;;3.35;1.00;;;;;;;15.55;45.03;95492.72;4897664;29;20073;-69
2021/05/15 08:46:55;;;;;;;2.72;0.98;;;;;;;15.69;44.18;95483.03;4879949;29;20061;-67
2021/05/15 08:49:25;;;;;;;4.10;0.95;;;;;;;15.62;43.98;95493.19;4879993;29;20053;-67
2021/05/15 08:51:55;;;;;;;5.00;1.27;;;;;;;15.98;43.07;95485.56;4879424;29;20157;-67
2021/05/15 08:54:21;;;;;;;6.60;1.10;;;;;;;16.76;42.75;95484.09;4878687;29;20049;-66
2021/05/15 08:56:48;;;;;;;3.42;1.10;;;;;;;17.96;39.56;95475.13;4879480;29;20044;-67
2021/05/15 08:59:14;;;;;;;2.50;1.00;;;;;;;17.69;39.95;95470.63;4879462;29;20047;-67
2021/05/15 09:01:41;;;;;;;2.88;0.90;;;;;;;17.46;40.14;95469.78;4879409;29;20136;-67
2021/05/15 09:04:08;;;;;;;3.60;1.10;;;;;;;17.21;40.37;95465.75;4879134;29;20067;-66
2021/05/15 09:06:34;;;;;;;4.80;1.40;;;;;;;16.38;41.90;95465.59;4878474;29;20041;-67
2021/05/15 09:08:59;;;;;;;1.85;0.98;;;;;;;16.41;43.18;95462.38;4879431;29;20082;-67
2021/05/15 09:11:25;;;;;;;4.70;1.00;;;;;;;16.85;40.31;95461.09;4879639;29;20187;-66
2021/05/15 09:13:55;;;;;;;3.13;0.90;;;;;;;17.53;39.08;95451.53;4893615;29;20580;-67
2021/05/15 09:16:21;;;;;;;4.07;1.42;;;;;;;17.90;37.95;95461.16;4879318;29;20045;-67
2021/05/15 09:18:47;;;;;;;4.45;1.20;;;;;;;18.73;36.41;95456.28;4879737;29;20072;-67
2021/05/15 09:21:16;;;;;;;3.80;1.05;;;;;;;18.69;36.87;95451.88;4880043;29;20465;-67
2021/05/15 09:23:45;;;;;;;2.35;1.00;;;;;;;17.87;37.40;95437.03;4879466;29;20518;-67
2021/05/15 09:26:13;;;;;;;2.45;0.90;;;;;;;17.66;38.84;95437.44;4878845;29;20077;-67
2021/05/15 09:28:43;;;;;;;3.67;1.00;;;;;;;17.97;38.79;95429.59;4893320;29;20064;-67
2021/05/15 09:31:17;;;;;;;3.75;1.00;;;;;;;18.06;38.42;95434.97;4878630;29;20041;-66
2021/05/15 09:33:46;;;;;;;4.00;1.20;;;;;;;16.66;39.72;95431.13;4877378;29;20132;-67
2021/05/15 09:36:18;;;;;;;5.20;1.30;;;;;;;16.55;41.37;95435.84;4880600;29;20041;-67
2021/05/15 09:38:44;;;;;;;3.50;1.20;;;;;;;16.25;41.96;95429.16;4879889;29;20049;-67
2021/05/15 09:41:10;;;;;;;2.85;1.10;;;;;;;15.96;41.70;95430.16;4879170;29;20096;-66
2021/05/15 09:43:39;;;;;;;3.08;1.00;;;;;;;15.76;41.83;95422.47;4878853;29;20052;-66
2021/05/15 09:46:07;;;;;;;2.15;0.90;;;;;;;15.36;43.45;95429.91;4879680;29;20049;-66
2021/05/15 09:48:35;;;;;;;3.88;1.10;;;;;;;15.66;43.62;95412.84;4879269;29;20143;-66
2021/05/15 09:51:11;;;;;;;5.63;1.10;;;;;;;16.70;43.38;95408.22;4894178;29;20048;-67
2021/05/15 09:53:38;;;;;;;3.13;1.10;;;;;;;16.77;41.68;95403.34;4879505;29;20053;-69
2021/05/15 09:56:04;;;;;;;3.55;1.00;;;;;;;16.63;42.01;95399.84;4894418;29;20072;-67
2021/05/15 09:58:29;;;;;;;4.03;0.93;;;;;;;16.71;42.61;95404.53;4893314;29;20077;-67
2021/05/15 10:00:57;;;;;;;3.20;0.80;;;;;;;16.62;41.84;95392.97;4879132;29;20045;-67
2021/05/15 10:03:26;;;;;;;;;;;;;;;16.28;41.86;95389.56;4879311;29;20053;-66
2021/05/15 10:06:15;;;;;;;2.55;0.90;;;;;;;16.47;41.75;95384.22;4879678;29;19924;-65
2021/05/15 10:08:43;;;;;;;3.67;1.10;;;;;;;16.20;41.92;95386.81;4877999;29;20060;-67
2021/05/15 10:11:13;;;;;;;2.47;1.05;;;;;;;15.85;41.51;95375.69;4879340;29;20045;-66
2021/05/15 10:13:40;;;;;;;3.97;1.25;;;;;;;15.80;42.63;95370.44;4879048;29;20056;-67
2021/05/15 10:16:06;;;;;;;8.02;1.42;;;;;;;16.19;42.82;95369.28;4889623;29;20045;-66
2021/05/15 10:18:32;;;;;;;3.45;1.10;;;;;;;16.58;41.71;95360.94;4892473;29;20136;-66
2021/05/15 10:21:02;;;;;;;3.05;0.90;;;;;;;16.91;41.16;95363.50;4891886;29;20056;-65
2021/05/15 10:23:30;;;;;;;2.10;0.90;;;;;;;16.75;40.00;95355.06;4892033;29;20061;-66
2021/05/15 10:26:04;;;;;;;4.25;1.10;;;;;;;16.90;41.28;95354.75;4901012;29;20076;-66
2021/05/15 10:28:32;;;;;;;3.30;1.00;;;;;;;16.86;43.29;95345.81;4885194;29;20049;-66
2021/05/15 10:31:08;;;;;;;5.47;1.00;;;;;;;17.64;40.90;95343.06;4886046;29;20086;-67
2021/05/15 10:33:35;;;;;;;3.15;1.00;;;;;;;17.57;39.02;95344.28;4897974;29;20087;-66
2021/05/15 10:36:04;;;;;;;4.45;1.30;;;;;;;17.88;39.41;95338.28;4897931;29;20148;-67
2021/05/15 10:38:36;;;;;;;4.22;1.15;;;;;;;18.13;38.39;95336.84;4882776;29;20053;-65
2021/05/15 10:41:11;;;;;;;3.08;1.08;;;;;;;18.29;37.66;95340.69;4896702;29;20064;-65
2021/05/15 10:43:41;;;;;;;3.15;0.90;;;;;;;18.41;35.61;95337.50;4882291;29;20047;-66
2021/05/15 10:46:16;;;;;;;4.97;1.05;;;;;;;18.00;36.13;95335.84;4882323;29;20595;-66
2021/05/15 10:48:41;;;;;;;3.17;1.00;;;;;;;18.34;35.90;95324.59;4881161;29;20049;-66
2021/05/15 10:51:08;;;;;;;3.38;0.90;;;;;;;18.16;35.93;95322.94;4882136;29;20552;-66
2021/05/15 10:53:34;;;;;;;3.60;1.00;;;;;;;18.21;35.67;95319.38;4882483;29;20056;-66
2021/05/15 10:56:03;;;;;;;2.55;0.90;;;;;;;18.22;35.55;95318.28;4896101;29;20045;-66
2021/05/15 10:58:46;;;;;;;3.75;1.10;;;;;;;18.35;35.74;95309.44;4896662;29;20056;-66
2021/05/15 11:01:14;;;;;;;4.30;1.10;;;;;;;18.19;36.92;95302.91;4882270;29;20052;-66
2021/05/15 11:03:41;;;;;;;7.82;2.40;;;;;;;18.65;36.37;95301.69;4896511;29;20072;-67
2021/05/15 11:06:21;;;;;;;3.50;1.13;;;;;;;18.26;36.08;95301.41;4882262;29;20048;-66
2021/05/15 11:08:57;;;;;;;6.28;1.88;;;;;;;18.12;36.65;95307.91;4881867;29;20040;-66
2021/05/15 11:11:35;;;;;;;4.07;1.25;;;;;;;18.10;35.83;95303.66;4896101;29;20689;-67
2021/05/15 11:14:03;;;;;;;4.20;1.08;;;;;;;17.72;35.93;95303.28;4881969;29;20053;-65
2021/05/15 11:16:32;;;;;;;2.28;0.80;;;;;;;18.24;35.90;95302.78;4882160;29;20105;-66
2021/05/15 11:19:08;;;;;;;2.72;0.90;;;;;;;17.76;35.30;95295.50;4881432;29;20429;-65
2021/05/15 11:21:38;;;;;;;2.95;0.90;;;;;;;18.19;35.82;95294.94;4881582;29;20145;-66
2021/05/15 11:24:05;;;;;;;4.25;1.30;;;;;;;17.99;34.81;95278.41;4881456;29;20064;-66
2021/05/15 11:26:49;;;;;;;6.20;1.20;;;;;;;18.33;35.49;95272.44;4895015;29;20517;-66
2021/05/15 11:29:18;;;;;;;2.72;0.85;;;;;;;18.36;34.18;95269.19;4881351;29;20123;-66
2021/05/15 11:31:43;;;;;;;17.92;6.88;;;;;;;18.32;34.29;95278.88;4882136;29;20140;-65
2021/05/15 11:34:11;;;;;;;4.55;1.20;;;;;;;18.27;33.91;95280.88;4895331;29;20076;-66
2021/05/15 11:36:40;;;;;;;4.60;1.20;;;;;;;17.75;33.71;95267.31;4882269;29;20170;-66
2021/05/15 11:39:06;;;;;;;3.53;1.00;;;;;;;17.84;33.43;95268.16;4881961;29;20539;-65
2021/05/15 11:41:32;;;;;;;3.30;1.08;;;;;;;18.26;34.47;95266.00;4880999;29;20049;-66
2021/05/15 11:44:00;;;;;;;2.53;0.85;;;;;;;18.86;34.03;95254.78;4880644;29;20071;-66